Terminal Aerodrome Forecast
Issued by NWS Sterling, VA

Current Version | Previous Version | Graphics & Text | Print | Product List | Glossary On
Versions: 1 2 3 4 5 6 7 8 9 10 11 12 13 14 15 16 17 18 19 20 21
000
FTUS41 KLWX 241500 AAA
TAFIAD
TAF AMD
KIAD 241501Z 2415/2518 07006KT P6SM BKN050
     FM250000 VRB03KT P6SM FEW250
     FM251500 07006KT P6SM FEW250=

USA.gov is the U.S. government's official web portal to all federal, state and local government web resources and services.